Terminal Aerodrome Forecast
Issued by NWS

Home | Current Version | Previous Version | Text Only | Print | Product List | Glossary On
Versions: 1 2 3 4 5 6 7 8 9 10 11 12
063
FTUS46 KPDT 091740
TAFBDN
TAF
KBDN 091740Z 0918/1018 22004KT P6SM SKC
     FM092200 33006KT P6SM SKC
     FM100300 16005KT P6SM FEW250
     FM100800 19008KT 1/4SM FZFG OVC001=

USA.gov is the U.S. government's official web portal to all federal, state and local government web resources and services.